sensor_id;sensor_type;location;lat;lon;timestamp;pressure;altitude;pressure_sealevel;temperature;humidity
77153;BME280;66124;51.146;17.072;2023-04-24T00:01:41;99122.36;;;13.80;70.64
77153;BME280;66124;51.146;17.072;2023-04-24T00:04:10;99118.19;;;13.81;70.47
77153;BME280;66124;51.146;17.072;2023-04-24T00:06:40;99114.96;;;13.81;70.63
77153;BME280;66124;51.146;17.072;2023-04-24T00:09:09;99111.90;;;13.82;70.70
77153;BME280;66124;51.146;17.072;2023-04-24T00:11:39;99107.27;;;13.81;70.77
77153;BME280;66124;51.146;17.072;2023-04-24T00:14:08;99109.11;;;13.80;70.54
77153;BME280;66124;51.146;17.072;2023-04-24T00:16:38;99103.29;;;13.80;70.91
77153;BME280;66124;51.146;17.072;2023-04-24T00:19:07;99098.73;;;13.80;70.83
77153;BME280;66124;51.146;17.072;2023-04-24T00:21:36;99098.44;;;13.80;70.85
77153;BME280;66124;51.146;17.072;2023-04-24T00:24:06;99096.52;;;13.79;71.05
77153;BME280;66124;51.146;17.072;2023-04-24T00:26:34;99095.87;;;13.80;70.64
77153;BME280;66124;51.146;17.072;2023-04-24T00:35:08;99086.62;;;13.88;70.67
77153;BME280;66124;51.146;17.072;2023-04-24T00:37:38;99079.08;;;13.85;70.65
77153;BME280;66124;51.146;17.072;2023-04-24T00:40:09;99078.50;;;13.85;70.66
77153;BME280;66124;51.146;17.072;2023-04-24T00:42:40;99080.92;;;13.87;70.67
77153;BME280;66124;51.146;17.072;2023-04-24T00:45:11;99076.43;;;13.87;70.87
77153;BME280;66124;51.146;17.072;2023-04-24T00:47:42;99076.29;;;13.88;70.93
77153;BME280;66124;51.146;17.072;2023-04-24T00:50:12;99075.23;;;13.88;70.51
77153;BME280;66124;51.146;17.072;2023-04-24T00:52:43;99078.42;;;13.89;70.86
77153;BME280;66124;51.146;17.072;2023-04-24T00:55:13;99080.98;;;13.90;70.61
77153;BME280;66124;51.146;17.072;2023-04-24T00:57:42;99074.79;;;13.90;70.86
77153;BME280;66124;51.146;17.072;2023-04-24T01:00:13;99072.35;;;13.90;70.85
77153;BME280;66124;51.146;17.072;2023-04-24T01:02:44;99068.70;;;13.90;70.95
77153;BME280;66124;51.146;17.072;2023-04-24T01:05:14;99065.28;;;13.91;70.92
77153;BME280;66124;51.146;17.072;2023-04-24T01:07:45;99058.88;;;13.91;71.14
77153;BME280;66124;51.146;17.072;2023-04-24T01:10:16;99066.29;;;13.91;71.18
77153;BME280;66124;51.146;17.072;2023-04-24T01:12:45;99062.73;;;13.89;71.14
77153;BME280;66124;51.146;17.072;2023-04-24T01:15:15;99061.21;;;13.90;71.30
77153;BME280;66124;51.146;17.072;2023-04-24T01:17:44;99062.97;;;13.87;71.25
77153;BME280;66124;51.146;17.072;2023-04-24T01:20:14;99061.50;;;13.86;71.24
77153;BME280;66124;51.146;17.072;2023-04-24T01:22:44;99057.33;;;13.84;71.17
77153;BME280;66124;51.146;17.072;2023-04-24T01:25:14;99053.48;;;13.83;71.21
77153;BME280;66124;51.146;17.072;2023-04-24T01:27:43;99054.73;;;13.80;71.47
77153;BME280;66124;51.146;17.072;2023-04-24T01:30:15;99059.01;;;13.78;71.49
77153;BME280;66124;51.146;17.072;2023-04-24T01:32:44;99058.58;;;13.77;71.63
77153;BME280;66124;51.146;17.072;2023-04-24T01:35:14;99055.81;;;13.77;71.54
77153;BME280;66124;51.146;17.072;2023-04-24T01:37:44;99054.45;;;13.75;71.53
77153;BME280;66124;51.146;17.072;2023-04-24T01:40:14;99051.48;;;13.75;71.52
77153;BME280;66124;51.146;17.072;2023-04-24T01:42:43;99045.27;;;13.73;71.68
77153;BME280;66124;51.146;17.072;2023-04-24T01:45:11;99044.56;;;13.72;71.75
77153;BME280;66124;51.146;17.072;2023-04-24T01:47:39;99044.46;;;13.70;71.71
77153;BME280;66124;51.146;17.072;2023-04-24T01:55:46;99045.41;;;13.72;71.74
77153;BME280;66124;51.146;17.072;2023-04-24T01:58:15;99045.02;;;13.71;71.53
77153;BME280;66124;51.146;17.072;2023-04-24T02:00:45;99043.55;;;13.71;71.63
77153;BME280;66124;51.146;17.072;2023-04-24T02:03:14;99043.76;;;13.71;71.38
77153;BME280;66124;51.146;17.072;2023-04-24T02:05:46;99038.84;;;13.69;71.58
77153;BME280;66124;51.146;17.072;2023-04-24T02:08:13;99036.96;;;13.71;71.47
77153;BME280;66124;51.146;17.072;2023-04-24T02:10:43;99036.77;;;13.67;71.66
77153;BME280;66124;51.146;17.072;2023-04-24T02:13:12;99037.09;;;13.67;71.58
77153;BME280;66124;51.146;17.072;2023-04-24T02:15:42;99038.53;;;13.66;71.60
77153;BME280;66124;51.146;17.072;2023-04-24T02:18:11;99039.20;;;13.65;71.53
77153;BME280;66124;51.146;17.072;2023-04-24T02:20:40;99035.10;;;13.64;71.56
77153;BME280;66124;51.146;17.072;2023-04-24T02:23:10;99033.31;;;13.64;71.74
77153;BME280;66124;51.146;17.072;2023-04-24T02:25:39;99032.27;;;13.63;71.71
77153;BME280;66124;51.146;17.072;2023-04-24T02:28:08;99028.30;;;13.61;72.24
77153;BME280;66124;51.146;17.072;2023-04-24T02:30:38;99019.34;;;13.59;72.38
77153;BME280;66124;51.146;17.072;2023-04-24T02:33:07;99019.02;;;13.56;72.60
77153;BME280;66124;51.146;17.072;2023-04-24T02:35:37;99015.07;;;13.53;72.67
77153;BME280;66124;51.146;17.072;2023-04-24T02:38:06;99012.73;;;13.51;72.47
77153;BME280;66124;51.146;17.072;2023-04-24T02:40:35;99009.88;;;13.49;73.02
77153;BME280;66124;51.146;17.072;2023-04-24T02:43:05;99007.47;;;13.46;73.22
77153;BME280;66124;51.146;17.072;2023-04-24T02:45:34;99001.06;;;13.44;73.19
77153;BME280;66124;51.146;17.072;2023-04-24T02:48:04;98995.22;;;13.43;73.15
77153;BME280;66124;51.146;17.072;2023-04-24T02:50:33;98989.23;;;13.43;73.51
77153;BME280;66124;51.146;17.072;2023-04-24T02:53:03;98987.65;;;13.43;73.54
77153;BME280;66124;51.146;17.072;2023-04-24T02:55:32;98985.50;;;13.42;73.72
77153;BME280;66124;51.146;17.072;2023-04-24T02:58:02;98986.83;;;13.40;73.77
77153;BME280;66124;51.146;17.072;2023-04-24T03:00:31;98988.41;;;13.39;73.74
77153;BME280;66124;51.146;17.072;2023-04-24T03:03:00;98982.20;;;13.39;73.73
77153;BME280;66124;51.146;17.072;2023-04-24T03:05:30;98981.55;;;13.39;73.93
77153;BME280;66124;51.146;17.072;2023-04-24T03:07:58;98980.34;;;13.39;73.91
77153;BME280;66124;51.146;17.072;2023-04-24T03:15:34;98976.09;;;13.36;74.24
77153;BME280;66124;51.146;17.072;2023-04-24T03:18:04;98972.96;;;13.32;74.40
77153;BME280;66124;51.146;17.072;2023-04-24T03:20:33;98975.07;;;13.31;74.58
77153;BME280;66124;51.146;17.072;2023-04-24T03:23:03;98974.91;;;13.28;74.30
77153;BME280;66124;51.146;17.072;2023-04-24T03:25:32;98979.73;;;13.27;74.73
77153;BME280;66124;51.146;17.072;2023-04-24T03:28:03;98983.35;;;13.25;74.83
77153;BME280;66124;51.146;17.072;2023-04-24T03:30:32;98989.48;;;13.23;74.60
77153;BME280;66124;51.146;17.072;2023-04-24T03:33:02;98987.30;;;13.22;74.49
77153;BME280;66124;51.146;17.072;2023-04-24T03:35:31;98993.05;;;13.21;74.79
77153;BME280;66124;51.146;17.072;2023-04-24T03:38:00;98988.67;;;13.20;74.58
77153;BME280;66124;51.146;17.072;2023-04-24T03:40:30;98992.46;;;13.17;74.81
77153;BME280;66124;51.146;17.072;2023-04-24T03:42:59;98996.21;;;13.19;74.66
77153;BME280;66124;51.146;17.072;2023-04-24T03:45:29;98990.52;;;13.18;74.53
77153;BME280;66124;51.146;17.072;2023-04-24T03:47:58;98989.48;;;13.18;74.83
77153;BME280;66124;51.146;17.072;2023-04-24T03:50:27;98993.95;;;13.18;74.91
77153;BME280;66124;51.146;17.072;2023-04-24T03:52:57;98994.98;;;13.18;74.56
77153;BME280;66124;51.146;17.072;2023-04-24T03:55:26;98992.73;;;13.18;74.40
77153;BME280;66124;51.146;17.072;2023-04-24T03:57:56;98991.09;;;13.18;74.68
77153;BME280;66124;51.146;17.072;2023-04-24T04:00:25;98996.39;;;13.18;74.49
77153;BME280;66124;51.146;17.072;2023-04-24T04:02:55;99000.44;;;13.17;74.66
77153;BME280;66124;51.146;17.072;2023-04-24T04:05:24;99001.36;;;13.16;74.79
77153;BME280;66124;51.146;17.072;2023-04-24T04:07:54;99003.72;;;13.13;74.48
77153;BME280;66124;51.146;17.072;2023-04-24T04:10:23;99004.21;;;13.09;74.74
77153;BME280;66124;51.146;17.072;2023-04-24T04:12:53;99000.38;;;13.07;74.68
77153;BME280;66124;51.146;17.072;2023-04-24T04:15:22;99004.14;;;13.05;74.63
77153;BME280;66124;51.146;17.072;2023-04-24T04:17:51;99002.39;;;13.04;74.53
77153;BME280;66124;51.146;17.072;2023-04-24T04:20:21;98999.16;;;13.02;74.50
77153;BME280;66124;51.146;17.072;2023-04-24T04:22:50;99000.29;;;13.00;74.54
77153;BME280;66124;51.146;17.072;2023-04-24T04:25:18;99000.23;;;12.98;74.55
77153;BME280;66124;51.146;17.072;2023-04-24T04:27:46;98999.31;;;12.97;74.57
77153;BME280;66124;51.146;17.072;2023-04-24T04:34:05;98993.08;;;12.98;74.51
77153;BME280;66124;51.146;17.072;2023-04-24T04:36:34;98993.88;;;12.98;74.55
77153;BME280;66124;51.146;17.072;2023-04-24T04:39:04;98991.23;;;12.99;74.24
77153;BME280;66124;51.146;17.072;2023-04-24T04:41:33;98992.80;;;13.03;74.12
77153;BME280;66124;51.146;17.072;2023-04-24T04:44:03;98990.61;;;13.07;73.77
77153;BME280;66124;51.146;17.072;2023-04-24T04:46:33;98986.24;;;13.11;73.79
77153;BME280;66124;51.146;17.072;2023-04-24T04:49:03;98992.20;;;13.18;73.58
77153;BME280;66124;51.146;17.072;2023-04-24T04:51:33;98997.17;;;13.24;73.64
77153;BME280;66124;51.146;17.072;2023-04-24T04:54:02;98998.68;;;13.29;73.44
77153;BME280;66124;51.146;17.072;2023-04-24T04:56:31;98999.23;;;13.36;73.52
77153;BME280;66124;51.146;17.072;2023-04-24T04:59:01;99004.09;;;13.44;73.17
77153;BME280;66124;51.146;17.072;2023-04-24T05:01:30;98999.85;;;13.51;72.94
77153;BME280;66124;51.146;17.072;2023-04-24T05:03:59;98998.33;;;13.57;72.83
77153;BME280;66124;51.146;17.072;2023-04-24T05:06:29;99002.63;;;13.64;72.76
77153;BME280;66124;51.146;17.072;2023-04-24T05:08:58;99006.38;;;13.71;72.36
77153;BME280;66124;51.146;17.072;2023-04-24T05:11:27;99005.75;;;13.82;72.55
77153;BME280;66124;51.146;17.072;2023-04-24T05:13:57;99004.78;;;13.95;72.06
77153;BME280;66124;51.146;17.072;2023-04-24T05:16:26;98997.80;;;14.10;71.90
77153;BME280;66124;51.146;17.072;2023-04-24T05:18:56;98991.89;;;14.18;71.52
77153;BME280;66124;51.146;17.072;2023-04-24T05:21:25;98997.56;;;14.32;71.36
77153;BME280;66124;51.146;17.072;2023-04-24T05:23:54;99000.35;;;14.42;71.01
77153;BME280;66124;51.146;17.072;2023-04-24T05:26:24;98999.18;;;14.50;70.40
77153;BME280;66124;51.146;17.072;2023-04-24T05:28:53;98998.55;;;14.58;70.44
77153;BME280;66124;51.146;17.072;2023-04-24T05:31:23;98986.92;;;14.58;70.23
77153;BME280;66124;51.146;17.072;2023-04-24T05:33:52;99001.70;;;14.75;69.75
77153;BME280;66124;51.146;17.072;2023-04-24T05:36:22;98999.20;;;14.83;69.52
77153;BME280;66124;51.146;17.072;2023-04-24T05:38:51;99002.20;;;14.90;69.07
77153;BME280;66124;51.146;17.072;2023-04-24T05:41:20;99004.08;;;14.97;68.83
77153;BME280;66124;51.146;17.072;2023-04-24T05:43:48;99005.85;;;15.04;68.59
77153;BME280;66124;51.146;17.072;2023-04-24T05:46:16;99000.48;;;15.09;68.24
77153;BME280;66124;51.146;17.072;2023-04-24T05:53:53;99005.69;;;15.27;67.54
77153;BME280;66124;51.146;17.072;2023-04-24T05:56:22;99007.80;;;15.32;67.12
77153;BME280;66124;51.146;17.072;2023-04-24T05:58:52;99008.48;;;15.37;66.57
77153;BME280;66124;51.146;17.072;2023-04-24T06:01:21;99015.02;;;15.43;66.26
77153;BME280;66124;51.146;17.072;2023-04-24T06:03:51;99015.42;;;15.48;65.77
77153;BME280;66124;51.146;17.072;2023-04-24T06:06:22;99019.11;;;15.52;65.27
77153;BME280;66124;51.146;17.072;2023-04-24T06:08:52;99019.02;;;15.58;64.95
77153;BME280;66124;51.146;17.072;2023-04-24T06:11:22;99019.10;;;15.63;64.91
77153;BME280;66124;51.146;17.072;2023-04-24T06:13:51;99022.14;;;15.68;64.72
77153;BME280;66124;51.146;17.072;2023-04-24T06:16:21;99022.61;;;15.70;64.40
77153;BME280;66124;51.146;17.072;2023-04-24T06:18:50;99022.77;;;15.74;64.15
77153;BME280;66124;51.146;17.072;2023-04-24T06:21:19;99026.73;;;15.75;63.91
77153;BME280;66124;51.146;17.072;2023-04-24T06:23:49;99028.67;;;15.77;63.62
77153;BME280;66124;51.146;17.072;2023-04-24T06:26:18;99024.30;;;15.79;63.16
77153;BME280;66124;51.146;17.072;2023-04-24T06:28:47;99025.77;;;15.80;63.18
77153;BME280;66124;51.146;17.072;2023-04-24T06:31:17;99029.31;;;15.84;63.32
77153;BME280;66124;51.146;17.072;2023-04-24T06:33:46;99029.10;;;15.86;62.64
77153;BME280;66124;51.146;17.072;2023-04-24T06:36:15;99028.06;;;15.88;62.65
77153;BME280;66124;51.146;17.072;2023-04-24T06:38:45;99027.19;;;15.90;62.44
77153;BME280;66124;51.146;17.072;2023-04-24T06:41:14;99032.64;;;15.93;62.20
77153;BME280;66124;51.146;17.072;2023-04-24T06:43:44;99031.25;;;15.95;62.15
77153;BME280;66124;51.146;17.072;2023-04-24T06:46:13;99032.13;;;15.97;61.75
77153;BME280;66124;51.146;17.072;2023-04-24T06:48:43;99031.72;;;15.98;61.76
77153;BME280;66124;51.146;17.072;2023-04-24T06:51:12;99034.45;;;16.00;61.63
77153;BME280;66124;51.146;17.072;2023-04-24T06:53:42;99034.40;;;16.03;61.26
77153;BME280;66124;51.146;17.072;2023-04-24T06:56:11;99030.39;;;16.06;61.19
77153;BME280;66124;51.146;17.072;2023-04-24T06:58:40;99029.25;;;16.07;60.97
77153;BME280;66124;51.146;17.072;2023-04-24T07:01:11;99028.30;;;16.07;60.60
77153;BME280;66124;51.146;17.072;2023-04-24T07:03:40;99029.33;;;16.09;60.81
77153;BME280;66124;51.146;17.072;2023-04-24T07:06:09;99030.20;;;16.15;60.56
77153;BME280;66124;51.146;17.072;2023-04-24T07:16:12;99028.98;;;16.37;60.01
77153;BME280;66124;51.146;17.072;2023-04-24T07:18:41;99029.12;;;16.43;59.61
77153;BME280;66124;51.146;17.072;2023-04-24T07:21:10;99029.98;;;16.50;59.54
77153;BME280;66124;51.146;17.072;2023-04-24T07:23:40;99029.19;;;16.58;59.58
77153;BME280;66124;51.146;17.072;2023-04-24T07:26:09;99029.35;;;16.67;59.50
77153;BME280;66124;51.146;17.072;2023-04-24T07:28:39;99032.83;;;16.73;59.03
77153;BME280;66124;51.146;17.072;2023-04-24T07:31:10;99032.46;;;16.74;58.66
77153;BME280;66124;51.146;17.072;2023-04-24T07:33:40;99032.86;;;16.70;58.71
77153;BME280;66124;51.146;17.072;2023-04-24T07:36:09;99032.24;;;16.73;58.82
77153;BME280;66124;51.146;17.072;2023-04-24T07:38:39;99035.61;;;16.74;58.35
77153;BME280;66124;51.146;17.072;2023-04-24T07:41:08;99034.96;;;16.72;58.27
77153;BME280;66124;51.146;17.072;2023-04-24T07:43:38;99034.89;;;16.72;58.61
77153;BME280;66124;51.146;17.072;2023-04-24T07:46:08;99035.80;;;16.76;58.51
77153;BME280;66124;51.146;17.072;2023-04-24T07:48:37;99036.66;;;16.81;58.28
77153;BME280;66124;51.146;17.072;2023-04-24T07:51:07;99034.15;;;16.85;58.71
77153;BME280;66124;51.146;17.072;2023-04-24T07:53:36;99038.38;;;16.92;58.57
77153;BME280;66124;51.146;17.072;2023-04-24T07:56:06;99039.39;;;17.01;58.69
77153;BME280;66124;51.146;17.072;2023-04-24T07:58:35;99040.52;;;17.11;58.75
77153;BME280;66124;51.146;17.072;2023-04-24T08:01:05;99041.09;;;17.19;58.72
77153;BME280;66124;51.146;17.072;2023-04-24T08:03:34;99040.76;;;17.24;58.27
77153;BME280;66124;51.146;17.072;2023-04-24T08:06:05;99041.64;;;17.27;58.54
77153;BME280;66124;51.146;17.072;2023-04-24T08:08:34;99043.20;;;17.32;58.48
77153;BME280;66124;51.146;17.072;2023-04-24T08:11:04;99040.77;;;17.35;58.31
77153;BME280;66124;51.146;17.072;2023-04-24T08:13:33;99043.34;;;17.42;58.43
77153;BME280;66124;51.146;17.072;2023-04-24T08:16:03;99041.05;;;17.49;58.31
77153;BME280;66124;51.146;17.072;2023-04-24T08:18:32;99043.05;;;17.55;58.21
77153;BME280;66124;51.146;17.072;2023-04-24T08:21:02;99041.48;;;17.57;58.16
77153;BME280;66124;51.146;17.072;2023-04-24T08:23:31;99045.70;;;17.64;58.25
77153;BME280;66124;51.146;17.072;2023-04-24T08:25:59;99046.87;;;17.69;58.09
77153;BME280;66124;51.146;17.072;2023-04-24T08:28:27;99051.23;;;17.73;57.94
77153;BME280;66124;51.146;17.072;2023-04-24T08:39:29;99061.86;;;17.65;57.90
77153;BME280;66124;51.146;17.072;2023-04-24T08:42:01;99062.88;;;17.59;57.81
77153;BME280;66124;51.146;17.072;2023-04-24T08:44:31;99052.24;;;17.57;58.07
77153;BME280;66124;51.146;17.072;2023-04-24T08:47:02;99042.77;;;17.49;58.36
77153;BME280;66124;51.146;17.072;2023-04-24T08:49:32;99034.47;;;17.35;59.05
77153;BME280;66124;51.146;17.072;2023-04-24T08:52:03;99046.81;;;17.38;59.45
77153;BME280;66124;51.146;17.072;2023-04-24T08:54:33;99051.88;;;17.39;60.03
77153;BME280;66124;51.146;17.072;2023-04-24T08:57:03;99054.30;;;17.44;60.25
77153;BME280;66124;51.146;17.072;2023-04-24T08:59:33;99053.60;;;17.55;60.36
77153;BME280;66124;51.146;17.072;2023-04-24T09:02:04;99045.28;;;17.71;60.30
77153;BME280;66124;51.146;17.072;2023-04-24T09:04:36;99050.34;;;17.90;60.41
77153;BME280;66124;51.146;17.072;2023-04-24T09:07:07;99048.60;;;18.05;60.15
77153;BME280;66124;51.146;17.072;2023-04-24T09:09:40;99047.13;;;18.18;60.07
77153;BME280;66124;51.146;17.072;2023-04-24T09:12:11;99050.53;;;18.33;59.81
77153;BME280;66124;51.146;17.072;2023-04-24T09:14:40;99048.02;;;18.44;59.24
77153;BME280;66124;51.146;17.072;2023-04-24T09:17:10;99049.95;;;18.56;58.99
77153;BME280;66124;51.146;17.072;2023-04-24T09:19:39;99043.80;;;18.63;58.38
77153;BME280;66124;51.146;17.072;2023-04-24T09:22:09;99042.55;;;18.70;58.50
77153;BME280;66124;51.146;17.072;2023-04-24T09:24:39;99040.61;;;18.79;57.79
77153;BME280;66124;51.146;17.072;2023-04-24T09:27:10;99040.41;;;18.86;57.71
77153;BME280;66124;51.146;17.072;2023-04-24T09:29:40;99039.77;;;18.98;57.67
77153;BME280;66124;51.146;17.072;2023-04-24T09:32:22;99041.18;;;19.06;56.69
77153;BME280;66124;51.146;17.072;2023-04-24T09:35:07;99038.66;;;19.03;56.27
77153;BME280;66124;51.146;17.072;2023-04-24T09:37:41;99037.58;;;19.04;56.12
77153;BME280;66124;51.146;17.072;2023-04-24T09:40:12;99040.23;;;19.09;55.68
77153;BME280;66124;51.146;17.072;2023-04-24T09:42:45;99041.30;;;19.12;55.42
77153;BME280;66124;51.146;17.072;2023-04-24T09:45:15;99038.92;;;19.16;55.05
77153;BME280;66124;51.146;17.072;2023-04-24T09:47:44;99036.33;;;19.13;55.12
77153;BME280;66124;51.146;17.072;2023-04-24T09:50:14;99035.75;;;19.16;55.13
77153;BME280;66124;51.146;17.072;2023-04-24T09:52:46;99034.38;;;19.22;54.97
77153;BME280;66124;51.146;17.072;2023-04-24T10:00:48;99024.79;;;19.17;54.72
77153;BME280;66124;51.146;17.072;2023-04-24T10:03:19;99024.14;;;19.11;54.63
77153;BME280;66124;51.146;17.072;2023-04-24T10:05:48;99021.96;;;18.97;54.49
77153;BME280;66124;51.146;17.072;2023-04-24T10:08:18;99016.75;;;18.73;54.84
77153;BME280;66124;51.146;17.072;2023-04-24T10:10:47;99013.31;;;18.54;55.14
77153;BME280;66124;51.146;17.072;2023-04-24T10:13:17;99015.11;;;18.36;55.53
77153;BME280;66124;51.146;17.072;2023-04-24T10:15:47;99017.66;;;18.25;55.85
77153;BME280;66124;51.146;17.072;2023-04-24T10:18:17;99018.15;;;18.18;56.50
77153;BME280;66124;51.146;17.072;2023-04-24T10:20:47;99019.10;;;18.06;56.72
77153;BME280;66124;51.146;17.072;2023-04-24T10:23:17;99018.86;;;17.96;56.83
77153;BME280;66124;51.146;17.072;2023-04-24T10:25:49;99019.79;;;17.91;56.98
77153;BME280;66124;51.146;17.072;2023-04-24T10:28:18;99021.83;;;17.85;56.74
77153;BME280;66124;51.146;17.072;2023-04-24T10:30:49;99027.67;;;17.69;56.65
77153;BME280;66124;51.146;17.072;2023-04-24T10:33:19;99024.48;;;17.53;57.00
77153;BME280;66124;51.146;17.072;2023-04-24T10:35:50;99021.61;;;17.38;57.79
77153;BME280;66124;51.146;17.072;2023-04-24T10:38:24;99012.80;;;17.31;58.27
77153;BME280;66124;51.146;17.072;2023-04-24T10:40:58;99011.65;;;17.34;58.70
77153;BME280;66124;51.146;17.072;2023-04-24T10:43:36;99018.00;;;17.46;58.88
77153;BME280;66124;51.146;17.072;2023-04-24T10:46:06;99021.94;;;17.60;58.32
77153;BME280;66124;51.146;17.072;2023-04-24T10:48:36;99016.60;;;17.66;57.88
77153;BME280;66124;51.146;17.072;2023-04-24T10:51:14;99030.84;;;17.86;57.60
77153;BME280;66124;51.146;17.072;2023-04-24T10:53:44;99027.17;;;18.02;57.52
77153;BME280;66124;51.146;17.072;2023-04-24T10:56:15;99027.30;;;18.12;57.25
77153;BME280;66124;51.146;17.072;2023-04-24T10:58:43;99024.90;;;18.20;56.68
77153;BME280;66124;51.146;17.072;2023-04-24T11:01:26;99023.79;;;18.13;56.79
77153;BME280;66124;51.146;17.072;2023-04-24T11:03:58;99026.45;;;18.06;56.76
77153;BME280;66124;51.146;17.072;2023-04-24T11:06:32;99026.29;;;17.97;56.81
77153;BME280;66124;51.146;17.072;2023-04-24T11:09:05;99031.63;;;17.84;56.76
77153;BME280;66124;51.146;17.072;2023-04-24T11:11:35;99032.20;;;17.69;57.06
77153;BME280;66124;51.146;17.072;2023-04-24T11:14:07;99020.02;;;17.44;57.15
77153;BME280;66124;51.146;17.072;2023-04-24T11:17:05;99032.35;;;17.40;57.57
77153;BME280;66124;51.146;17.072;2023-04-24T11:19:35;99026.79;;;17.29;57.83
77153;BME280;66124;51.146;17.072;2023-04-24T11:22:13;99028.98;;;17.28;57.83
77153;BME280;66124;51.146;17.072;2023-04-24T11:24:53;99031.61;;;17.31;57.75
77153;BME280;66124;51.146;17.072;2023-04-24T11:27:23;99028.04;;;17.37;57.86
77153;BME280;66124;51.146;17.072;2023-04-24T11:30:01;99029.58;;;17.47;58.01
77153;BME280;66124;51.146;17.072;2023-04-24T11:32:34;99029.88;;;17.59;57.41
77153;BME280;66124;51.146;17.072;2023-04-24T11:35:05;99030.52;;;17.66;56.88
77153;BME280;66124;51.146;17.072;2023-04-24T11:37:37;99031.42;;;17.71;56.93
77153;BME280;66124;51.146;17.072;2023-04-24T11:40:09;99032.09;;;17.75;56.91
77153;BME280;66124;51.146;17.072;2023-04-24T11:42:41;99030.85;;;17.80;56.69
77153;BME280;66124;51.146;17.072;2023-04-24T11:45:13;99033.09;;;17.87;56.49
77153;BME280;66124;51.146;17.072;2023-04-24T11:47:44;99035.90;;;17.90;56.57
77153;BME280;66124;51.146;17.072;2023-04-24T11:50:15;99033.70;;;17.97;56.93
77153;BME280;66124;51.146;17.072;2023-04-24T11:52:47;99029.55;;;18.13;56.71
77153;BME280;66124;51.146;17.072;2023-04-24T11:55:25;99026.88;;;18.38;56.25
77153;BME280;66124;51.146;17.072;2023-04-24T11:57:56;99025.13;;;18.57;55.20
77153;BME280;66124;51.146;17.072;2023-04-24T12:00:27;99018.84;;;18.73;54.64
77153;BME280;66124;51.146;17.072;2023-04-24T12:03:07;99021.71;;;18.80;54.28
77153;BME280;66124;51.146;17.072;2023-04-24T12:05:37;99021.64;;;18.82;54.01
77153;BME280;66124;51.146;17.072;2023-04-24T12:08:07;99021.34;;;18.86;53.92
77153;BME280;66124;51.146;17.072;2023-04-24T12:10:36;99021.09;;;18.87;53.92
77153;BME280;66124;51.146;17.072;2023-04-24T12:13:08;99017.83;;;18.86;53.95
77153;BME280;66124;51.146;17.072;2023-04-24T12:15:41;99019.61;;;18.81;53.92
77153;BME280;66124;51.146;17.072;2023-04-24T12:18:12;99013.83;;;18.75;53.89
77153;BME280;66124;51.146;17.072;2023-04-24T12:20:42;99009.20;;;18.67;53.93
77153;BME280;66124;51.146;17.072;2023-04-24T12:23:11;99009.63;;;18.55;54.16
77153;BME280;66124;51.146;17.072;2023-04-24T12:25:41;99014.14;;;18.43;54.44
77153;BME280;66124;51.146;17.072;2023-04-24T12:28:12;99012.70;;;18.25;54.91
77153;BME280;66124;51.146;17.072;2023-04-24T12:30:42;99011.06;;;18.04;55.06
77153;BME280;66124;51.146;17.072;2023-04-24T12:35:54;99007.02;;;17.74;55.32
77153;BME280;66124;51.146;17.072;2023-04-24T12:38:26;99013.09;;;17.59;55.81
77153;BME280;66124;51.146;17.072;2023-04-24T12:41:05;99011.89;;;17.48;56.03
77153;BME280;66124;51.146;17.072;2023-04-24T12:43:35;99012.86;;;17.38;56.05
77153;BME280;66124;51.146;17.072;2023-04-24T12:46:05;99009.73;;;17.27;56.52
77153;BME280;66124;51.146;17.072;2023-04-24T12:48:35;99005.49;;;17.20;56.56
77153;BME280;66124;51.146;17.072;2023-04-24T12:51:05;99001.58;;;17.17;56.92
77153;BME280;66124;51.146;17.072;2023-04-24T12:53:34;98999.26;;;17.15;57.00
77153;BME280;66124;51.146;17.072;2023-04-24T12:56:05;98993.54;;;17.12;57.22
77153;BME280;66124;51.146;17.072;2023-04-24T12:58:34;98997.54;;;17.07;57.59
77153;BME280;66124;51.146;17.072;2023-04-24T13:01:04;98995.09;;;17.02;57.86
77153;BME280;66124;51.146;17.072;2023-04-24T13:03:33;98994.71;;;16.97;58.40
77153;BME280;66124;51.146;17.072;2023-04-24T13:06:03;98993.98;;;16.93;58.85
77153;BME280;66124;51.146;17.072;2023-04-24T13:08:32;98999.88;;;16.88;59.37
77153;BME280;66124;51.146;17.072;2023-04-24T13:11:01;98994.94;;;16.79;60.35
77153;BME280;66124;51.146;17.072;2023-04-24T13:13:31;98998.27;;;16.64;61.24
77153;BME280;66124;51.146;17.072;2023-04-24T13:16:00;98997.31;;;16.47;61.85
77153;BME280;66124;51.146;17.072;2023-04-24T13:18:30;98994.48;;;16.24;61.88
77153;BME280;66124;51.146;17.072;2023-04-24T13:20:59;98994.21;;;15.98;61.46
77153;BME280;66124;51.146;17.072;2023-04-24T13:23:29;98991.35;;;15.76;61.49
77153;BME280;66124;51.146;17.072;2023-04-24T13:25:58;98991.72;;;15.60;61.45
77153;BME280;66124;51.146;17.072;2023-04-24T13:28:28;98992.04;;;15.47;60.93
77153;BME280;66124;51.146;17.072;2023-04-24T13:30:57;98992.53;;;15.36;60.62
77153;BME280;66124;51.146;17.072;2023-04-24T13:33:27;98991.33;;;15.28;60.49
77153;BME280;66124;51.146;17.072;2023-04-24T13:35:56;98995.25;;;15.19;60.32
77153;BME280;66124;51.146;17.072;2023-04-24T13:38:26;98994.80;;;15.09;60.22
77153;BME280;66124;51.146;17.072;2023-04-24T13:40:55;98994.73;;;14.97;60.52
77153;BME280;66124;51.146;17.072;2023-04-24T13:43:25;98994.13;;;14.86;61.01
77153;BME280;66124;51.146;17.072;2023-04-24T13:45:54;98989.86;;;14.78;61.11
77153;BME280;66124;51.146;17.072;2023-04-24T13:48:22;98994.09;;;14.71;61.53
77153;BME280;66124;51.146;17.072;2023-04-24T13:55:57;98999.70;;;14.63;62.07
77153;BME280;66124;51.146;17.072;2023-04-24T13:58:27;99001.30;;;14.60;62.14
77153;BME280;66124;51.146;17.072;2023-04-24T14:00:56;98996.25;;;14.63;62.24